To NAV CANADA Home Page Login to a new session Search on AWWS site Disclaimer Vers la page française équivalente Tips FAQ What's new on the site To the Forecasts and Observations / NOTAM section To "File a Flight Plan" website Publications and other links Update of the User's profile FIC Telephone Numbers My Weather Data Folder Route Weather Data Regional Weather Data Local Weather Data To the Forecasts and Observations / NOTAM section
Request Generated 11/13/2018 at 18:20:55 UTC . Weather information available at that time is displayed.

METAR/TAF

FREDERICTON INTL/NB    (show WxCam)

SPECI CYFC 131817Z AUTO 08006KT 3SM -SN OVC007 00/ A3005 RMK ICG PRESFR TD MISG SLP178=
SPECI CYFC 131804Z AUTO 09007KT 4SM -SN BKN007 OVC018 01/ A3006 RMK ICG PAST HR TD MISG SLP183=
METAR CYFC 131800Z AUTO 09008KT 4SM -SN BKN007 OVC016 01/ A3006 RMK ICG INTMT PRESFR TD MISG SLP183=
SPECI CYFC 131748Z AUTO 08007KT 3SM -SN BKN007 OVC016 00/ A3007 RMK ICG PRESFR TD MISG SLP187=
SPECI CYFC 131745Z AUTO 08007KT 3SM -SN BKN007 OVC016 00/ A3008 RMK ICG PAST HR PRESFR TD MISG SLP189=
SPECI CYFC 131743Z AUTO 09007KT 3SM -SN BKN007 OVC016 00/ A3009 RMK ICG INTMT PRESFR TD MISG SLP191=
SPECI CYFC 131741Z AUTO 09007KT 3SM -SN BKN005 OVC016 00/ A3009 RMK ICG INTMT PRESFR TD MISG SLP192=
SPECI CYFC 131732Z AUTO 09007KT 2SM -SN BKN005 OVC014 00/ A3010 RMK VIS VRB 1 1/2-3 ICG INTMT PRESFR TD MISG SLP196=
SPECI CYFC 131729Z AUTO 09006KT 1 3/4SM -SN BKN005 OVC014 00/ A3011 RMK ICG PRESFR TD MISG SLP198=
SPECI CYFC 131721Z AUTO 09007KT 1 1/4SM -SN OVC005 00/ A3012 RMK ICG PAST HR PRESFR TD MISG SLP201=
METAR CYFC 131700Z AUTO 09005KT 3/4SM R09/5500FT/N -SN OVC005 00/ A3014 RMK ICG TD MISG SLP210=
SPECI CYFC 131659Z AUTO 09005KT 3/4SM R09/5500FT/U -SN OVC005 00/ A3014 RMK ICG TD MISG SLP210=
SPECI CYFC 131636Z AUTO 09005KT 3/4SM R09/5500FT/U -SN OVC005 00/00 A3016 RMK ICG PAST HR PRESFR SLP216=
SPECI CYFC 131610Z AUTO 08006KT 3/4SM R09/P6000FT/U -SN OVC005 M00/M00 A3019 RMK ICG SLP225=
METAR CYFC 131600Z AUTO 07006KT 1SM R09/P6000FT/D -SN BKN005 OVC011 M00/M00 A3019 RMK SLP227=

TAF CYFC 131738Z 1318/1406 07006KT 3/4SM -SN VV005 TEMPO 1318/1320
3SM -RASN OVC020
FM132000 14012G22KT P6SM -RA OVC010 TEMPO 1320/1401 4SM -RA BR
OVC006
BECMG 1323/1401 03015G25KT
FM140100 03015G25KT P6SM -RA OVC008 TEMPO 1401/1403 2SM -RA BR
OVC006 PROB30 1401/1403 1SM -RA -DZ BR OVC004
FM140300 34015KT P6SM -RA OVC015 TEMPO 1403/1405 3SM -RA BR
OVC008
FM140500 29015G25KT P6SM BKN020
RMK FCST BASED ON AUTO OBS. NXT FCST BY 140000Z=
Your time UTC time
Weather data provided by Environment Canada and NAV CANADA